sensor_id;sensor_type;location;lat;lon;timestamp;pressure;altitude;pressure_sealevel;temperature
9985;BMP180;16737;50.932;6.780;2023-04-30T00:00:32;100845.00;;;14.80
9985;BMP180;16737;50.932;6.780;2023-04-30T00:03:00;100845.00;;;14.80
9985;BMP180;16737;50.932;6.780;2023-04-30T00:05:29;100849.00;;;14.80
9985;BMP180;16737;50.932;6.780;2023-04-30T00:07:56;100859.00;;;14.70
9985;BMP180;16737;50.932;6.780;2023-04-30T00:10:24;100858.00;;;14.70
9985;BMP180;16737;50.932;6.780;2023-04-30T00:12:52;100853.00;;;14.60
9985;BMP180;16737;50.932;6.780;2023-04-30T00:15:20;100853.00;;;14.50
9985;BMP180;16737;50.932;6.780;2023-04-30T00:17:47;100850.00;;;14.50
9985;BMP180;16737;50.932;6.780;2023-04-30T00:20:14;100850.00;;;14.40
9985;BMP180;16737;50.932;6.780;2023-04-30T00:22:42;100855.00;;;14.40
9985;BMP180;16737;50.932;6.780;2023-04-30T00:25:09;100854.00;;;14.40
9985;BMP180;16737;50.932;6.780;2023-04-30T00:27:36;100855.00;;;14.30
9985;BMP180;16737;50.932;6.780;2023-04-30T00:30:06;100860.00;;;14.30
9985;BMP180;16737;50.932;6.780;2023-04-30T00:32:34;100859.00;;;14.30
9985;BMP180;16737;50.932;6.780;2023-04-30T00:35:01;100854.00;;;14.10
9985;BMP180;16737;50.932;6.780;2023-04-30T00:37:28;100864.00;;;14.20
9985;BMP180;16737;50.932;6.780;2023-04-30T00:39:56;100862.00;;;14.10
9985;BMP180;16737;50.932;6.780;2023-04-30T00:42:23;100866.00;;;14.10
9985;BMP180;16737;50.932;6.780;2023-04-30T00:44:50;100862.00;;;14.10
9985;BMP180;16737;50.932;6.780;2023-04-30T00:47:19;100863.00;;;14.10
9985;BMP180;16737;50.932;6.780;2023-04-30T00:49:46;100861.00;;;14.00
9985;BMP180;16737;50.932;6.780;2023-04-30T00:52:14;100865.00;;;14.00
9985;BMP180;16737;50.932;6.780;2023-04-30T00:54:41;100865.00;;;13.90
9985;BMP180;16737;50.932;6.780;2023-04-30T00:57:11;100872.00;;;13.90
9985;BMP180;16737;50.932;6.780;2023-04-30T00:59:39;100862.00;;;13.90
9985;BMP180;16737;50.932;6.780;2023-04-30T01:02:07;100856.00;;;13.80
9985;BMP180;16737;50.932;6.780;2023-04-30T01:04:37;100851.00;;;13.80
9985;BMP180;16737;50.932;6.780;2023-04-30T01:07:04;100864.00;;;13.70
9985;BMP180;16737;50.932;6.780;2023-04-30T01:09:32;100856.00;;;13.70
9985;BMP180;16737;50.932;6.780;2023-04-30T01:12:04;100862.00;;;13.70
9985;BMP180;16737;50.932;6.780;2023-04-30T01:14:44;100862.00;;;13.60
9985;BMP180;16737;50.932;6.780;2023-04-30T01:17:20;100864.00;;;13.60
9985;BMP180;16737;50.932;6.780;2023-04-30T01:19:51;100866.00;;;13.60
9985;BMP180;16737;50.932;6.780;2023-04-30T01:22:34;100871.00;;;13.60
9985;BMP180;16737;50.932;6.780;2023-04-30T01:25:28;100865.00;;;13.50
9985;BMP180;16737;50.932;6.780;2023-04-30T01:28:05;100867.00;;;13.50
9985;BMP180;16737;50.932;6.780;2023-04-30T01:30:35;100861.00;;;13.50
9985;BMP180;16737;50.932;6.780;2023-04-30T01:33:02;100854.00;;;13.50
9985;BMP180;16737;50.932;6.780;2023-04-30T01:36:01;100866.00;;;13.20
9985;BMP180;16737;50.932;6.780;2023-04-30T01:38:45;100850.00;;;13.40
9985;BMP180;16737;50.932;6.780;2023-04-30T01:41:19;100849.00;;;13.40
9985;BMP180;16737;50.932;6.780;2023-04-30T01:44:05;100853.00;;;13.30
9985;BMP180;16737;50.932;6.780;2023-04-30T01:46:36;100852.00;;;13.30
9985;BMP180;16737;50.932;6.780;2023-04-30T01:49:11;100852.00;;;13.30
9985;BMP180;16737;50.932;6.780;2023-04-30T01:51:42;100853.00;;;13.30
9985;BMP180;16737;50.932;6.780;2023-04-30T01:54:18;100853.00;;;13.30
9985;BMP180;16737;50.932;6.780;2023-04-30T01:56:56;100845.00;;;13.20
9985;BMP180;16737;50.932;6.780;2023-04-30T01:59:30;100857.00;;;13.20
9985;BMP180;16737;50.932;6.780;2023-04-30T02:01:59;100859.00;;;13.20
9985;BMP180;16737;50.932;6.780;2023-04-30T02:04:30;100855.00;;;13.20
9985;BMP180;16737;50.932;6.780;2023-04-30T02:06:57;100857.00;;;13.20
9985;BMP180;16737;50.932;6.780;2023-04-30T02:09:25;100849.00;;;13.20
9985;BMP180;16737;50.932;6.780;2023-04-30T02:11:52;100854.00;;;13.10
9985;BMP180;16737;50.932;6.780;2023-04-30T02:14:27;100856.00;;;13.10
9985;BMP180;16737;50.932;6.780;2023-04-30T02:16:58;100854.00;;;13.00
9985;BMP180;16737;50.932;6.780;2023-04-30T02:19:25;100852.00;;;13.00
9985;BMP180;16737;50.932;6.780;2023-04-30T02:21:53;100843.00;;;13.00
9985;BMP180;16737;50.932;6.780;2023-04-30T02:24:20;100857.00;;;13.00
9985;BMP180;16737;50.932;6.780;2023-04-30T02:26:48;100849.00;;;12.90
9985;BMP180;16737;50.932;6.780;2023-04-30T02:29:15;100852.00;;;12.90
9985;BMP180;16737;50.932;6.780;2023-04-30T02:31:42;100838.00;;;12.90
9985;BMP180;16737;50.932;6.780;2023-04-30T02:34:11;100852.00;;;12.90
9985;BMP180;16737;50.932;6.780;2023-04-30T02:36:38;100835.00;;;12.80
9985;BMP180;16737;50.932;6.780;2023-04-30T02:39:05;100847.00;;;12.80
9985;BMP180;16737;50.932;6.780;2023-04-30T02:41:34;100853.00;;;12.80
9985;BMP180;16737;50.932;6.780;2023-04-30T02:44:01;100844.00;;;12.80
9985;BMP180;16737;50.932;6.780;2023-04-30T02:46:28;100839.00;;;12.70
9985;BMP180;16737;50.932;6.780;2023-04-30T02:48:56;100846.00;;;12.50
9985;BMP180;16737;50.932;6.780;2023-04-30T02:51:24;100849.00;;;12.70
9985;BMP180;16737;50.932;6.780;2023-04-30T02:53:53;100847.00;;;12.60
9985;BMP180;16737;50.932;6.780;2023-04-30T02:56:20;100847.00;;;12.60
9985;BMP180;16737;50.932;6.780;2023-04-30T02:58:47;100849.00;;;12.60
9985;BMP180;16737;50.932;6.780;2023-04-30T03:01:15;100851.00;;;12.50
9985;BMP180;16737;50.932;6.780;2023-04-30T03:03:42;100859.00;;;12.50
9985;BMP180;16737;50.932;6.780;2023-04-30T03:06:09;100864.00;;;12.50
9985;BMP180;16737;50.932;6.780;2023-04-30T03:08:38;100858.00;;;12.50
9985;BMP180;16737;50.932;6.780;2023-04-30T03:11:05;100855.00;;;12.40
9985;BMP180;16737;50.932;6.780;2023-04-30T03:13:32;100856.00;;;12.40
9985;BMP180;16737;50.932;6.780;2023-04-30T03:16:00;100831.00;;;12.40
9985;BMP180;16737;50.932;6.780;2023-04-30T03:18:29;100852.00;;;12.30
9985;BMP180;16737;50.932;6.780;2023-04-30T03:20:57;100859.00;;;12.30
9985;BMP180;16737;50.932;6.780;2023-04-30T03:23:25;100844.00;;;12.30
9985;BMP180;16737;50.932;6.780;2023-04-30T03:25:54;100846.00;;;12.30
9985;BMP180;16737;50.932;6.780;2023-04-30T03:28:21;100845.00;;;12.30
9985;BMP180;16737;50.932;6.780;2023-04-30T03:30:49;100836.00;;;12.30
9985;BMP180;16737;50.932;6.780;2023-04-30T03:33:16;100833.00;;;12.20
9985;BMP180;16737;50.932;6.780;2023-04-30T03:35:43;100845.00;;;12.20
9985;BMP180;16737;50.932;6.780;2023-04-30T03:38:11;100843.00;;;12.20
9985;BMP180;16737;50.932;6.780;2023-04-30T03:40:38;100846.00;;;12.20
9985;BMP180;16737;50.932;6.780;2023-04-30T03:43:06;100849.00;;;12.10
9985;BMP180;16737;50.932;6.780;2023-04-30T03:45:34;100839.00;;;12.10
9985;BMP180;16737;50.932;6.780;2023-04-30T03:48:01;100845.00;;;12.10
9985;BMP180;16737;50.932;6.780;2023-04-30T03:50:29;100851.00;;;12.00
9985;BMP180;16737;50.932;6.780;2023-04-30T03:52:56;100847.00;;;12.00
9985;BMP180;16737;50.932;6.780;2023-04-30T03:55:23;100845.00;;;12.00
9985;BMP180;16737;50.932;6.780;2023-04-30T03:57:51;100848.00;;;11.90
9985;BMP180;16737;50.932;6.780;2023-04-30T04:00:19;100839.00;;;11.90
9985;BMP180;16737;50.932;6.780;2023-04-30T04:02:47;100839.00;;;11.90
9985;BMP180;16737;50.932;6.780;2023-04-30T04:05:15;100845.00;;;11.90
9985;BMP180;16737;50.932;6.780;2023-04-30T04:07:42;100844.00;;;11.90
9985;BMP180;16737;50.932;6.780;2023-04-30T04:10:10;100851.00;;;11.80
9985;BMP180;16737;50.932;6.780;2023-04-30T04:12:37;100852.00;;;11.80
9985;BMP180;16737;50.932;6.780;2023-04-30T04:15:06;100847.00;;;11.80
9985;BMP180;16737;50.932;6.780;2023-04-30T04:17:35;100857.00;;;11.80
9985;BMP180;16737;50.932;6.780;2023-04-30T04:20:02;100851.00;;;11.80
9985;BMP180;16737;50.932;6.780;2023-04-30T04:22:32;100852.00;;;11.70
9985;BMP180;16737;50.932;6.780;2023-04-30T04:24:59;100852.00;;;11.70
9985;BMP180;16737;50.932;6.780;2023-04-30T04:27:26;100860.00;;;11.70
9985;BMP180;16737;50.932;6.780;2023-04-30T04:29:54;100852.00;;;11.70
9985;BMP180;16737;50.932;6.780;2023-04-30T04:32:22;100857.00;;;11.70
9985;BMP180;16737;50.932;6.780;2023-04-30T04:34:51;100868.00;;;11.70
9985;BMP180;16737;50.932;6.780;2023-04-30T04:37:19;100853.00;;;11.70
9985;BMP180;16737;50.932;6.780;2023-04-30T04:39:46;100865.00;;;11.70
9985;BMP180;16737;50.932;6.780;2023-04-30T04:42:14;100854.00;;;11.60
9985;BMP180;16737;50.932;6.780;2023-04-30T04:44:42;100853.00;;;11.40
9985;BMP180;16737;50.932;6.780;2023-04-30T04:47:09;100853.00;;;11.60
9985;BMP180;16737;50.932;6.780;2023-04-30T04:49:37;100848.00;;;11.60
9985;BMP180;16737;50.932;6.780;2023-04-30T04:52:06;100853.00;;;11.60
9985;BMP180;16737;50.932;6.780;2023-04-30T04:54:33;100850.00;;;11.70
9985;BMP180;16737;50.932;6.780;2023-04-30T04:57:01;100854.00;;;11.60
9985;BMP180;16737;50.932;6.780;2023-04-30T04:59:29;100863.00;;;11.70
9985;BMP180;16737;50.932;6.780;2023-04-30T05:01:56;100864.00;;;11.70
9985;BMP180;16737;50.932;6.780;2023-04-30T05:04:23;100867.00;;;11.70
9985;BMP180;16737;50.932;6.780;2023-04-30T05:06:50;100870.00;;;11.70
9985;BMP180;16737;50.932;6.780;2023-04-30T05:09:20;100879.00;;;11.70
9985;BMP180;16737;50.932;6.780;2023-04-30T05:11:47;100883.00;;;11.70
9985;BMP180;16737;50.932;6.780;2023-04-30T05:14:15;100886.00;;;11.80
9985;BMP180;16737;50.932;6.780;2023-04-30T05:16:42;100890.00;;;11.80
9985;BMP180;16737;50.932;6.780;2023-04-30T05:19:09;100892.00;;;11.80
9985;BMP180;16737;50.932;6.780;2023-04-30T05:21:36;100886.00;;;11.80
9985;BMP180;16737;50.932;6.780;2023-04-30T05:24:05;100890.00;;;11.60
9985;BMP180;16737;50.932;6.780;2023-04-30T05:26:34;100891.00;;;11.90
9985;BMP180;16737;50.932;6.780;2023-04-30T05:29:01;100898.00;;;11.90
9985;BMP180;16737;50.932;6.780;2023-04-30T05:31:28;100893.00;;;11.90
9985;BMP180;16737;50.932;6.780;2023-04-30T05:33:57;100895.00;;;12.00
9985;BMP180;16737;50.932;6.780;2023-04-30T05:36:25;100897.00;;;12.00
9985;BMP180;16737;50.932;6.780;2023-04-30T05:38:53;100906.00;;;12.10
9985;BMP180;16737;50.932;6.780;2023-04-30T05:41:21;100900.00;;;12.10
9985;BMP180;16737;50.932;6.780;2023-04-30T05:43:49;100910.00;;;12.20
9985;BMP180;16737;50.932;6.780;2023-04-30T05:46:17;100907.00;;;12.30
9985;BMP180;16737;50.932;6.780;2023-04-30T05:48:44;100908.00;;;12.30
9985;BMP180;16737;50.932;6.780;2023-04-30T05:51:11;100909.00;;;12.40
9985;BMP180;16737;50.932;6.780;2023-04-30T05:53:38;100902.00;;;12.40
9985;BMP180;16737;50.932;6.780;2023-04-30T05:56:06;100903.00;;;12.50
9985;BMP180;16737;50.932;6.780;2023-04-30T05:58:33;100898.00;;;12.30
9985;BMP180;16737;50.932;6.780;2023-04-30T06:01:02;100906.00;;;12.60
9985;BMP180;16737;50.932;6.780;2023-04-30T06:03:30;100912.00;;;12.70
9985;BMP180;16737;50.932;6.780;2023-04-30T06:05:57;100911.00;;;12.70
9985;BMP180;16737;50.932;6.780;2023-04-30T06:08:24;100910.00;;;12.80
9985;BMP180;16737;50.932;6.780;2023-04-30T06:10:52;100906.00;;;12.90
9985;BMP180;16737;50.932;6.780;2023-04-30T06:13:19;100900.00;;;12.90
9985;BMP180;16737;50.932;6.780;2023-04-30T06:15:46;100902.00;;;13.00
9985;BMP180;16737;50.932;6.780;2023-04-30T06:18:15;100904.00;;;13.10
9985;BMP180;16737;50.932;6.780;2023-04-30T06:20:42;100904.00;;;13.20
9985;BMP180;16737;50.932;6.780;2023-04-30T06:23:10;100904.00;;;13.20
9985;BMP180;16737;50.932;6.780;2023-04-30T06:25:37;100899.00;;;13.30
9985;BMP180;16737;50.932;6.780;2023-04-30T06:28:04;100912.00;;;13.30
9985;BMP180;16737;50.932;6.780;2023-04-30T06:30:34;100911.00;;;13.40
9985;BMP180;16737;50.932;6.780;2023-04-30T06:33:01;100909.00;;;13.40
9985;BMP180;16737;50.932;6.780;2023-04-30T06:35:30;100909.00;;;13.50
9985;BMP180;16737;50.932;6.780;2023-04-30T06:37:57;100916.00;;;13.50
9985;BMP180;16737;50.932;6.780;2023-04-30T06:40:24;100917.00;;;13.60
9985;BMP180;16737;50.932;6.780;2023-04-30T06:42:52;100919.00;;;13.70
9985;BMP180;16737;50.932;6.780;2023-04-30T06:45:19;100921.00;;;13.60
9985;BMP180;16737;50.932;6.780;2023-04-30T06:47:46;100915.00;;;13.80
9985;BMP180;16737;50.932;6.780;2023-04-30T06:50:14;100913.00;;;13.80
9985;BMP180;16737;50.932;6.780;2023-04-30T06:52:43;100918.00;;;13.90
9985;BMP180;16737;50.932;6.780;2023-04-30T06:55:10;100915.00;;;14.00
9985;BMP180;16737;50.932;6.780;2023-04-30T06:57:37;100918.00;;;14.10
9985;BMP180;16737;50.932;6.780;2023-04-30T07:00:05;100916.00;;;14.20
9985;BMP180;16737;50.932;6.780;2023-04-30T07:02:33;100912.00;;;14.20
9985;BMP180;16737;50.932;6.780;2023-04-30T07:05:01;100906.00;;;14.30
9985;BMP180;16737;50.932;6.780;2023-04-30T07:07:28;100902.00;;;14.40
9985;BMP180;16737;50.932;6.780;2023-04-30T07:09:57;100906.00;;;14.50
9985;BMP180;16737;50.932;6.780;2023-04-30T07:12:24;100906.00;;;14.60
9985;BMP180;16737;50.932;6.780;2023-04-30T07:14:52;100919.00;;;14.70
9985;BMP180;16737;50.932;6.780;2023-04-30T07:17:21;100908.00;;;14.80
9985;BMP180;16737;50.932;6.780;2023-04-30T07:19:49;100916.00;;;14.90
9985;BMP180;16737;50.932;6.780;2023-04-30T07:22:17;100910.00;;;15.00
9985;BMP180;16737;50.932;6.780;2023-04-30T07:24:44;100916.00;;;15.00
9985;BMP180;16737;50.932;6.780;2023-04-30T07:27:13;100919.00;;;14.90
9985;BMP180;16737;50.932;6.780;2023-04-30T07:29:40;100917.00;;;15.20
9985;BMP180;16737;50.932;6.780;2023-04-30T07:32:08;100923.00;;;15.10
9985;BMP180;16737;50.932;6.780;2023-04-30T07:34:35;100927.00;;;15.40
9985;BMP180;16737;50.932;6.780;2023-04-30T07:37:02;100921.00;;;15.40
9985;BMP180;16737;50.932;6.780;2023-04-30T07:39:30;100925.00;;;15.60
9985;BMP180;16737;50.932;6.780;2023-04-30T07:41:57;100920.00;;;15.60
9985;BMP180;16737;50.932;6.780;2023-04-30T07:44:26;100921.00;;;15.80
9985;BMP180;16737;50.932;6.780;2023-04-30T07:46:53;100921.00;;;15.90
9985;BMP180;16737;50.932;6.780;2023-04-30T07:49:20;100918.00;;;16.00
9985;BMP180;16737;50.932;6.780;2023-04-30T07:51:47;100922.00;;;16.10
9985;BMP180;16737;50.932;6.780;2023-04-30T07:54:15;100913.00;;;16.20
9985;BMP180;16737;50.932;6.780;2023-04-30T07:56:42;100921.00;;;16.20
9985;BMP180;16737;50.932;6.780;2023-04-30T07:59:09;100933.00;;;16.30
9985;BMP180;16737;50.932;6.780;2023-04-30T08:01:38;100924.00;;;16.30
9985;BMP180;16737;50.932;6.780;2023-04-30T08:04:08;100919.00;;;16.40
9985;BMP180;16737;50.932;6.780;2023-04-30T08:06:36;100922.00;;;16.50
9985;BMP180;16737;50.932;6.780;2023-04-30T08:09:03;100923.00;;;16.50
9985;BMP180;16737;50.932;6.780;2023-04-30T08:11:30;100930.00;;;16.50
9985;BMP180;16737;50.932;6.780;2023-04-30T08:13:58;100928.00;;;16.60
9985;BMP180;16737;50.932;6.780;2023-04-30T08:16:25;100924.00;;;16.70
9985;BMP180;16737;50.932;6.780;2023-04-30T08:18:54;100933.00;;;16.70
9985;BMP180;16737;50.932;6.780;2023-04-30T08:21:21;100935.00;;;16.80
9985;BMP180;16737;50.932;6.780;2023-04-30T08:23:49;100924.00;;;16.80
9985;BMP180;16737;50.932;6.780;2023-04-30T08:26:16;100933.00;;;16.90
9985;BMP180;16737;50.932;6.780;2023-04-30T08:28:44;100925.00;;;17.00
9985;BMP180;16737;50.932;6.780;2023-04-30T08:31:11;100923.00;;;17.10
9985;BMP180;16737;50.932;6.780;2023-04-30T08:33:39;100934.00;;;17.20
9985;BMP180;16737;50.932;6.780;2023-04-30T08:36:10;100926.00;;;17.30
9985;BMP180;16737;50.932;6.780;2023-04-30T08:38:37;100929.00;;;17.40
9985;BMP180;16737;50.932;6.780;2023-04-30T08:41:10;100928.00;;;17.50
9985;BMP180;16737;50.932;6.780;2023-04-30T08:43:38;100927.00;;;17.60
9985;BMP180;16737;50.932;6.780;2023-04-30T08:46:06;100923.00;;;17.70
9985;BMP180;16737;50.932;6.780;2023-04-30T08:48:33;100926.00;;;17.80
9985;BMP180;16737;50.932;6.780;2023-04-30T08:51:01;100930.00;;;18.00
9985;BMP180;16737;50.932;6.780;2023-04-30T08:53:33;100924.00;;;18.10
9985;BMP180;16737;50.932;6.780;2023-04-30T08:56:01;100919.00;;;18.20
9985;BMP180;16737;50.932;6.780;2023-04-30T08:58:29;100923.00;;;18.30
9985;BMP180;16737;50.932;6.780;2023-04-30T09:00:57;100925.00;;;18.40
9985;BMP180;16737;50.932;6.780;2023-04-30T09:03:27;100920.00;;;18.50
9985;BMP180;16737;50.932;6.780;2023-04-30T09:05:56;100921.00;;;18.60
9985;BMP180;16737;50.932;6.780;2023-04-30T09:08:43;100932.00;;;18.70
9985;BMP180;16737;50.932;6.780;2023-04-30T09:11:22;100921.00;;;18.80
9985;BMP180;16737;50.932;6.780;2023-04-30T09:13:51;100928.00;;;18.90
9985;BMP180;16737;50.932;6.780;2023-04-30T09:16:19;100915.00;;;19.00
9985;BMP180;16737;50.932;6.780;2023-04-30T09:18:47;100926.00;;;19.10
9985;BMP180;16737;50.932;6.780;2023-04-30T09:21:14;100925.00;;;19.20
9985;BMP180;16737;50.932;6.780;2023-04-30T09:23:56;100912.00;;;19.30
9985;BMP180;16737;50.932;6.780;2023-04-30T09:26:29;100910.00;;;19.40
9985;BMP180;16737;50.932;6.780;2023-04-30T09:28:58;100902.00;;;19.40
9985;BMP180;16737;50.932;6.780;2023-04-30T09:31:26;100906.00;;;19.50
9985;BMP180;16737;50.932;6.780;2023-04-30T09:33:53;100911.00;;;19.60
9985;BMP180;16737;50.932;6.780;2023-04-30T09:36:20;100895.00;;;19.60
9985;BMP180;16737;50.932;6.780;2023-04-30T09:38:48;100899.00;;;19.70
9985;BMP180;16737;50.932;6.780;2023-04-30T09:41:24;100899.00;;;19.70
9985;BMP180;16737;50.932;6.780;2023-04-30T09:43:52;100904.00;;;19.90
9985;BMP180;16737;50.932;6.780;2023-04-30T09:46:20;100904.00;;;19.90
9985;BMP180;16737;50.932;6.780;2023-04-30T09:48:56;100905.00;;;20.00
9985;BMP180;16737;50.932;6.780;2023-04-30T09:51:24;100905.00;;;20.20
9985;BMP180;16737;50.932;6.780;2023-04-30T09:53:52;100902.00;;;20.30
9985;BMP180;16737;50.932;6.780;2023-04-30T09:56:24;100899.00;;;20.40
9985;BMP180;16737;50.932;6.780;2023-04-30T09:58:54;100900.00;;;20.50
9985;BMP180;16737;50.932;6.780;2023-04-30T10:01:24;100896.00;;;20.60
9985;BMP180;16737;50.932;6.780;2023-04-30T10:03:59;100889.00;;;20.60
9985;BMP180;16737;50.932;6.780;2023-04-30T10:06:27;100892.00;;;20.70
9985;BMP180;16737;50.932;6.780;2023-04-30T10:09:02;100886.00;;;20.80
9985;BMP180;16737;50.932;6.780;2023-04-30T10:11:33;100891.00;;;20.90
9985;BMP180;16737;50.932;6.780;2023-04-30T10:14:04;100889.00;;;20.90
9985;BMP180;16737;50.932;6.780;2023-04-30T10:16:36;100887.00;;;21.00
9985;BMP180;16737;50.932;6.780;2023-04-30T10:19:08;100888.00;;;21.10
9985;BMP180;16737;50.932;6.780;2023-04-30T10:21:39;100888.00;;;21.10
9985;BMP180;16737;50.932;6.780;2023-04-30T10:24:09;100882.00;;;21.20
9985;BMP180;16737;50.932;6.780;2023-04-30T10:26:38;100872.00;;;21.30
9985;BMP180;16737;50.932;6.780;2023-04-30T10:29:06;100871.00;;;21.40
9985;BMP180;16737;50.932;6.780;2023-04-30T10:31:35;100872.00;;;21.50
9985;BMP180;16737;50.932;6.780;2023-04-30T10:34:13;100868.00;;;21.60
9985;BMP180;16737;50.932;6.780;2023-04-30T10:36:44;100878.00;;;21.60
9985;BMP180;16737;50.932;6.780;2023-04-30T10:39:14;100872.00;;;21.70
9985;BMP180;16737;50.932;6.780;2023-04-30T10:41:45;100867.00;;;21.70
9985;BMP180;16737;50.932;6.780;2023-04-30T10:44:14;100872.00;;;21.70
9985;BMP180;16737;50.932;6.780;2023-04-30T10:46:47;100874.00;;;21.70
9985;BMP180;16737;50.932;6.780;2023-04-30T10:49:14;100865.00;;;21.80
9985;BMP180;16737;50.932;6.780;2023-04-30T10:51:50;100862.00;;;21.80
9985;BMP180;16737;50.932;6.780;2023-04-30T10:54:24;100855.00;;;21.90
9985;BMP180;16737;50.932;6.780;2023-04-30T10:56:53;100851.00;;;21.90
9985;BMP180;16737;50.932;6.780;2023-04-30T10:59:23;100839.00;;;22.00
9985;BMP180;16737;50.932;6.780;2023-04-30T11:01:57;100846.00;;;22.00
9985;BMP180;16737;50.932;6.780;2023-04-30T11:04:25;100837.00;;;22.10
9985;BMP180;16737;50.932;6.780;2023-04-30T11:07:05;100829.00;;;22.10
9985;BMP180;16737;50.932;6.780;2023-04-30T11:09:40;100827.00;;;22.20
9985;BMP180;16737;50.932;6.780;2023-04-30T11:12:19;100824.00;;;22.20
9985;BMP180;16737;50.932;6.780;2023-04-30T11:15:00;100824.00;;;22.30
9985;BMP180;16737;50.932;6.780;2023-04-30T11:17:28;100825.00;;;22.30
9985;BMP180;16737;50.932;6.780;2023-04-30T11:19:59;100828.00;;;22.20
9985;BMP180;16737;50.932;6.780;2023-04-30T11:22:28;100821.00;;;22.30
9985;BMP180;16737;50.932;6.780;2023-04-30T11:25:03;100824.00;;;22.40
9985;BMP180;16737;50.932;6.780;2023-04-30T11:27:34;100821.00;;;22.40
9985;BMP180;16737;50.932;6.780;2023-04-30T11:30:03;100818.00;;;22.50
9985;BMP180;16737;50.932;6.780;2023-04-30T11:32:35;100807.00;;;22.60
9985;BMP180;16737;50.932;6.780;2023-04-30T11:35:04;100817.00;;;22.70
9985;BMP180;16737;50.932;6.780;2023-04-30T11:37:35;100814.00;;;22.90
9985;BMP180;16737;50.932;6.780;2023-04-30T11:40:04;100811.00;;;23.00
9985;BMP180;16737;50.932;6.780;2023-04-30T11:42:34;100808.00;;;23.10
9985;BMP180;16737;50.932;6.780;2023-04-30T11:45:06;100798.00;;;23.20
9985;BMP180;16737;50.932;6.780;2023-04-30T11:47:42;100806.00;;;23.30
9985;BMP180;16737;50.932;6.780;2023-04-30T11:50:12;100804.00;;;23.40
9985;BMP180;16737;50.932;6.780;2023-04-30T11:52:40;100803.00;;;23.40
9985;BMP180;16737;50.932;6.780;2023-04-30T11:55:12;100806.00;;;23.40
9985;BMP180;16737;50.932;6.780;2023-04-30T11:57:44;100797.00;;;23.50
9985;BMP180;16737;50.932;6.780;2023-04-30T12:00:13;100793.00;;;23.50
9985;BMP180;16737;50.932;6.780;2023-04-30T12:02:41;100784.00;;;23.60
9985;BMP180;16737;50.932;6.780;2023-04-30T12:05:12;100778.00;;;23.70
9985;BMP180;16737;50.932;6.780;2023-04-30T12:07:47;100781.00;;;23.80
9985;BMP180;16737;50.932;6.780;2023-04-30T12:10:17;100784.00;;;23.90
9985;BMP180;16737;50.932;6.780;2023-04-30T12:12:47;100777.00;;;24.00
9985;BMP180;16737;50.932;6.780;2023-04-30T12:15:16;100775.00;;;24.10
9985;BMP180;16737;50.932;6.780;2023-04-30T12:17:44;100767.00;;;24.20
9985;BMP180;16737;50.932;6.780;2023-04-30T12:20:12;100767.00;;;24.20
9985;BMP180;16737;50.932;6.780;2023-04-30T12:22:41;100772.00;;;24.30
9985;BMP180;16737;50.932;6.780;2023-04-30T12:25:11;100771.00;;;24.30
9985;BMP180;16737;50.932;6.780;2023-04-30T12:27:40;100771.00;;;24.30
9985;BMP180;16737;50.932;6.780;2023-04-30T12:30:10;100770.00;;;24.20
9985;BMP180;16737;50.932;6.780;2023-04-30T12:32:39;100768.00;;;24.10
9985;BMP180;16737;50.932;6.780;2023-04-30T12:35:08;100759.00;;;24.20
9985;BMP180;16737;50.932;6.780;2023-04-30T12:37:35;100763.00;;;24.20
9985;BMP180;16737;50.932;6.780;2023-04-30T12:40:03;100755.00;;;24.20
9985;BMP180;16737;50.932;6.780;2023-04-30T12:42:35;100754.00;;;24.20
9985;BMP180;16737;50.932;6.780;2023-04-30T12:45:02;100769.00;;;24.20
9985;BMP180;16737;50.932;6.780;2023-04-30T12:47:31;100760.00;;;24.20
9985;BMP180;16737;50.932;6.780;2023-04-30T12:49:58;100754.00;;;24.30
9985;BMP180;16737;50.932;6.780;2023-04-30T12:52:26;100754.00;;;24.30
9985;BMP180;16737;50.932;6.780;2023-04-30T12:54:54;100755.00;;;24.30
9985;BMP180;16737;50.932;6.780;2023-04-30T12:57:21;100751.00;;;24.30
9985;BMP180;16737;50.932;6.780;2023-04-30T12:59:57;100753.00;;;24.30
9985;BMP180;16737;50.932;6.780;2023-04-30T13:02:26;100746.00;;;24.30
9985;BMP180;16737;50.932;6.780;2023-04-30T13:04:55;100744.00;;;24.20
9985;BMP180;16737;50.932;6.780;2023-04-30T13:07:22;100742.00;;;24.20
9985;BMP180;16737;50.932;6.780;2023-04-30T13:09:50;100744.00;;;24.20
9985;BMP180;16737;50.932;6.780;2023-04-30T13:12:17;100739.00;;;24.20
9985;BMP180;16737;50.932;6.780;2023-04-30T13:14:45;100738.00;;;24.30
9985;BMP180;16737;50.932;6.780;2023-04-30T13:17:12;100730.00;;;24.30
9985;BMP180;16737;50.932;6.780;2023-04-30T13:19:40;100727.00;;;24.30
9985;BMP180;16737;50.932;6.780;2023-04-30T13:22:09;100727.00;;;24.40
9985;BMP180;16737;50.932;6.780;2023-04-30T13:24:36;100716.00;;;24.50
9985;BMP180;16737;50.932;6.780;2023-04-30T13:27:03;100718.00;;;24.50
9985;BMP180;16737;50.932;6.780;2023-04-30T13:29:31;100715.00;;;24.60
9985;BMP180;16737;50.932;6.780;2023-04-30T13:31:58;100718.00;;;24.70
9985;BMP180;16737;50.932;6.780;2023-04-30T13:34:25;100724.00;;;24.80
9985;BMP180;16737;50.932;6.780;2023-04-30T13:36:52;100681.00;;;24.70
9985;BMP180;16737;50.932;6.780;2023-04-30T13:39:21;100708.00;;;24.90
9985;BMP180;16737;50.932;6.780;2023-04-30T13:41:49;100701.00;;;25.00
9985;BMP180;16737;50.932;6.780;2023-04-30T13:44:16;100703.00;;;25.10
9985;BMP180;16737;50.932;6.780;2023-04-30T13:46:43;100693.00;;;25.00
9985;BMP180;16737;50.932;6.780;2023-04-30T13:49:11;100700.00;;;25.20
9985;BMP180;16737;50.932;6.780;2023-04-30T13:51:38;100693.00;;;25.20
9985;BMP180;16737;50.932;6.780;2023-04-30T13:54:05;100690.00;;;25.30
9985;BMP180;16737;50.932;6.780;2023-04-30T13:56:34;100692.00;;;25.30
9985;BMP180;16737;50.932;6.780;2023-04-30T13:59:01;100686.00;;;25.30
9985;BMP180;16737;50.932;6.780;2023-04-30T14:01:29;100684.00;;;25.30
9985;BMP180;16737;50.932;6.780;2023-04-30T14:04:00;100677.00;;;25.30
9985;BMP180;16737;50.932;6.780;2023-04-30T14:06:27;100679.00;;;25.30
9985;BMP180;16737;50.932;6.780;2023-04-30T14:08:55;100671.00;;;25.30
9985;BMP180;16737;50.932;6.780;2023-04-30T14:11:23;100672.00;;;25.40
9985;BMP180;16737;50.932;6.780;2023-04-30T14:13:51;100676.00;;;25.40
9985;BMP180;16737;50.932;6.780;2023-04-30T14:16:19;100670.00;;;25.40
9985;BMP180;16737;50.932;6.780;2023-04-30T14:18:47;100667.00;;;25.40